Terminal Aerodrome Forecast
Issued by NWS

Home | Current Version | Previous Version | Text Only | Print | Product List | Glossary On
Versions: 1 2 3 4 5 6 7 8 9 10 11 12 13 14 15 16 17 18
000
FTUS43 KDTX 282320
TAFDET
TAF
KDET 282320Z 2900/2924 20006KT P6SM SCT080 BKN200
     FM291500 19011KT P6SM BKN045 BKN250
     FM291800 21013G20KT P6SM BKN050 PROB30 2920/2924 4SM TSRA
      SCT035CB BKN050=

USA.gov is the U.S. government's official web portal to all federal, state and local government web resources and services.